sensor_id;sensor_type;location;lat;lon;timestamp;P1;durP1;ratioP1;P2;durP2;ratioP2
58681;SDS011;44460;40.162;18.294;2023-04-09T00:01:04;17.58;;;9.00;;
58681;SDS011;44460;40.162;18.294;2023-04-09T00:03:30;14.60;;;6.20;;
58681;SDS011;44460;40.162;18.294;2023-04-09T00:05:55;11.50;;;6.03;;
58681;SDS011;44460;40.162;18.294;2023-04-09T00:08:21;13.13;;;5.68;;
58681;SDS011;44460;40.162;18.294;2023-04-09T00:10:48;13.15;;;4.95;;
58681;SDS011;44460;40.162;18.294;2023-04-09T00:13:14;11.93;;;4.53;;
58681;SDS011;44460;40.162;18.294;2023-04-09T00:15:39;11.00;;;5.00;;
58681;SDS011;44460;40.162;18.294;2023-04-09T00:18:04;17.40;;;7.57;;
58681;SDS011;44460;40.162;18.294;2023-04-09T00:20:30;14.63;;;8.23;;
58681;SDS011;44460;40.162;18.294;2023-04-09T00:22:55;14.20;;;7.75;;
58681;SDS011;44460;40.162;18.294;2023-04-09T00:25:22;23.95;;;9.90;;
58681;SDS011;44460;40.162;18.294;2023-04-09T00:27:48;10.90;;;5.63;;
58681;SDS011;44460;40.162;18.294;2023-04-09T00:30:13;16.27;;;6.97;;
58681;SDS011;44460;40.162;18.294;2023-04-09T00:32:40;15.85;;;5.55;;
58681;SDS011;44460;40.162;18.294;2023-04-09T00:35:05;11.77;;;5.97;;
58681;SDS011;44460;40.162;18.294;2023-04-09T00:37:31;12.07;;;4.68;;
58681;SDS011;44460;40.162;18.294;2023-04-09T00:39:56;9.80;;;4.50;;
58681;SDS011;44460;40.162;18.294;2023-04-09T00:42:22;11.32;;;4.78;;
58681;SDS011;44460;40.162;18.294;2023-04-09T00:44:48;7.30;;;3.80;;
58681;SDS011;44460;40.162;18.294;2023-04-09T00:47:14;11.52;;;4.22;;
58681;SDS011;44460;40.162;18.294;2023-04-09T00:49:40;7.68;;;3.45;;
58681;SDS011;44460;40.162;18.294;2023-04-09T00:52:05;8.13;;;3.30;;
58681;SDS011;44460;40.162;18.294;2023-04-09T00:54:31;6.88;;;2.92;;
58681;SDS011;44460;40.162;18.294;2023-04-09T00:56:57;6.47;;;2.60;;
58681;SDS011;44460;40.162;18.294;2023-04-09T00:59:23;6.30;;;2.63;;
58681;SDS011;44460;40.162;18.294;2023-04-09T01:01:50;6.35;;;2.47;;
58681;SDS011;44460;40.162;18.294;2023-04-09T01:04:15;6.82;;;2.80;;
58681;SDS011;44460;40.162;18.294;2023-04-09T01:06:50;12.07;;;3.08;;
58681;SDS011;44460;40.162;18.294;2023-04-09T01:16:36;9.07;;;3.90;;
58681;SDS011;44460;40.162;18.294;2023-04-09T01:19:09;9.93;;;4.55;;
58681;SDS011;44460;40.162;18.294;2023-04-09T01:21:40;6.55;;;3.50;;
58681;SDS011;44460;40.162;18.294;2023-04-09T01:27:02;7.25;;;3.45;;
58681;SDS011;44460;40.162;18.294;2023-04-09T01:29:48;7.90;;;3.65;;
58681;SDS011;44460;40.162;18.294;2023-04-09T01:32:16;10.50;;;3.60;;
58681;SDS011;44460;40.162;18.294;2023-04-09T01:34:43;6.93;;;3.38;;
58681;SDS011;44460;40.162;18.294;2023-04-09T01:37:10;6.35;;;3.63;;
58681;SDS011;44460;40.162;18.294;2023-04-09T01:39:36;7.78;;;4.10;;
58681;SDS011;44460;40.162;18.294;2023-04-09T01:42:02;8.10;;;4.07;;
58681;SDS011;44460;40.162;18.294;2023-04-09T01:44:28;8.63;;;3.90;;
58681;SDS011;44460;40.162;18.294;2023-04-09T01:46:54;9.43;;;4.07;;
58681;SDS011;44460;40.162;18.294;2023-04-09T01:49:20;6.78;;;3.70;;
58681;SDS011;44460;40.162;18.294;2023-04-09T01:51:46;8.05;;;3.65;;
58681;SDS011;44460;40.162;18.294;2023-04-09T01:54:11;6.45;;;3.25;;
58681;SDS011;44460;40.162;18.294;2023-04-09T01:56:40;7.93;;;3.85;;
58681;SDS011;44460;40.162;18.294;2023-04-09T01:59:06;8.35;;;3.15;;
58681;SDS011;44460;40.162;18.294;2023-04-09T02:01:34;6.97;;;2.95;;
58681;SDS011;44460;40.162;18.294;2023-04-09T02:04:04;6.10;;;2.88;;
58681;SDS011;44460;40.162;18.294;2023-04-09T02:06:35;6.50;;;3.08;;
58681;SDS011;44460;40.162;18.294;2023-04-09T02:09:02;6.38;;;3.15;;
58681;SDS011;44460;40.162;18.294;2023-04-09T02:11:31;8.05;;;2.60;;
58681;SDS011;44460;40.162;18.294;2023-04-09T02:13:57;8.68;;;2.92;;
58681;SDS011;44460;40.162;18.294;2023-04-09T02:16:23;5.45;;;2.65;;
58681;SDS011;44460;40.162;18.294;2023-04-09T02:18:53;5.05;;;2.45;;
58681;SDS011;44460;40.162;18.294;2023-04-09T02:21:20;4.35;;;1.90;;
58681;SDS011;44460;40.162;18.294;2023-04-09T02:23:46;4.57;;;1.75;;
58681;SDS011;44460;40.162;18.294;2023-04-09T02:26:11;3.78;;;2.00;;
58681;SDS011;44460;40.162;18.294;2023-04-09T02:28:37;4.32;;;2.28;;
58681;SDS011;44460;40.162;18.294;2023-04-09T02:31:02;4.88;;;2.33;;
58681;SDS011;44460;40.162;18.294;2023-04-09T02:33:28;4.22;;;2.10;;
58681;SDS011;44460;40.162;18.294;2023-04-09T02:35:54;6.32;;;2.08;;
58681;SDS011;44460;40.162;18.294;2023-04-09T02:38:19;6.03;;;2.67;;
58681;SDS011;44460;40.162;18.294;2023-04-09T02:40:45;5.13;;;2.58;;
58681;SDS011;44460;40.162;18.294;2023-04-09T02:43:11;6.63;;;2.70;;
58681;SDS011;44460;40.162;18.294;2023-04-09T02:45:36;4.90;;;2.45;;
58681;SDS011;44460;40.162;18.294;2023-04-09T02:48:02;4.90;;;2.45;;
58681;SDS011;44460;40.162;18.294;2023-04-09T02:50:32;9.68;;;3.38;;
58681;SDS011;44460;40.162;18.294;2023-04-09T02:52:58;6.43;;;2.70;;
58681;SDS011;44460;40.162;18.294;2023-04-09T02:55:23;8.95;;;3.13;;
58681;SDS011;44460;40.162;18.294;2023-04-09T02:57:49;11.07;;;3.30;;
58681;SDS011;44460;40.162;18.294;2023-04-09T03:00:14;12.10;;;3.53;;
58681;SDS011;44460;40.162;18.294;2023-04-09T03:02:40;8.13;;;3.33;;
58681;SDS011;44460;40.162;18.294;2023-04-09T03:05:06;9.45;;;3.08;;
58681;SDS011;44460;40.162;18.294;2023-04-09T03:07:31;13.88;;;4.45;;
58681;SDS011;44460;40.162;18.294;2023-04-09T03:09:57;10.05;;;3.45;;
58681;SDS011;44460;40.162;18.294;2023-04-09T03:12:23;8.35;;;3.58;;
58681;SDS011;44460;40.162;18.294;2023-04-09T03:14:48;8.13;;;3.38;;
58681;SDS011;44460;40.162;18.294;2023-04-09T03:17:13;10.55;;;3.67;;
58681;SDS011;44460;40.162;18.294;2023-04-09T03:19:39;10.20;;;3.10;;
58681;SDS011;44460;40.162;18.294;2023-04-09T03:22:05;12.52;;;3.22;;
58681;SDS011;44460;40.162;18.294;2023-04-09T03:24:31;9.63;;;3.13;;
58681;SDS011;44460;40.162;18.294;2023-04-09T03:27:00;10.40;;;3.22;;
58681;SDS011;44460;40.162;18.294;2023-04-09T03:29:26;18.70;;;4.72;;
58681;SDS011;44460;40.162;18.294;2023-04-09T03:31:51;7.20;;;2.97;;
58681;SDS011;44460;40.162;18.294;2023-04-09T03:34:18;8.90;;;3.20;;
58681;SDS011;44460;40.162;18.294;2023-04-09T03:36:47;10.75;;;3.20;;
58681;SDS011;44460;40.162;18.294;2023-04-09T03:39:19;13.63;;;3.75;;
58681;SDS011;44460;40.162;18.294;2023-04-09T03:41:44;5.15;;;2.42;;
58681;SDS011;44460;40.162;18.294;2023-04-09T03:44:13;7.07;;;2.10;;
58681;SDS011;44460;40.162;18.294;2023-04-09T03:46:55;7.53;;;2.80;;
58681;SDS011;44460;40.162;18.294;2023-04-09T03:49:21;5.30;;;2.08;;
58681;SDS011;44460;40.162;18.294;2023-04-09T03:51:47;8.13;;;2.63;;
58681;SDS011;44460;40.162;18.294;2023-04-09T03:54:13;8.10;;;2.45;;
58681;SDS011;44460;40.162;18.294;2023-04-09T03:56:40;6.82;;;2.00;;
58681;SDS011;44460;40.162;18.294;2023-04-09T03:59:08;6.85;;;2.80;;
58681;SDS011;44460;40.162;18.294;2023-04-09T04:01:38;7.07;;;2.42;;
58681;SDS011;44460;40.162;18.294;2023-04-09T04:04:03;6.40;;;2.20;;
58681;SDS011;44460;40.162;18.294;2023-04-09T04:06:42;5.22;;;2.13;;
58681;SDS011;44460;40.162;18.294;2023-04-09T04:09:27;9.20;;;2.95;;
58681;SDS011;44460;40.162;18.294;2023-04-09T04:12:01;9.25;;;2.53;;
58681;SDS011;44460;40.162;18.294;2023-04-09T04:14:52;8.75;;;2.58;;
58681;SDS011;44460;40.162;18.294;2023-04-09T04:17:31;6.32;;;2.53;;
58681;SDS011;44460;40.162;18.294;2023-04-09T04:19:57;12.10;;;2.40;;
58681;SDS011;44460;40.162;18.294;2023-04-09T04:22:23;7.65;;;2.50;;
58681;SDS011;44460;40.162;18.294;2023-04-09T04:24:51;7.13;;;2.70;;
58681;SDS011;44460;40.162;18.294;2023-04-09T04:27:19;8.40;;;2.10;;
58681;SDS011;44460;40.162;18.294;2023-04-09T04:29:45;12.73;;;2.80;;
58681;SDS011;44460;40.162;18.294;2023-04-09T04:32:22;8.05;;;2.75;;
58681;SDS011;44460;40.162;18.294;2023-04-09T04:34:49;10.98;;;3.05;;
58681;SDS011;44460;40.162;18.294;2023-04-09T04:37:21;8.07;;;2.90;;
58681;SDS011;44460;40.162;18.294;2023-04-09T04:39:48;10.95;;;3.15;;
58681;SDS011;44460;40.162;18.294;2023-04-09T04:42:15;9.73;;;3.03;;
58681;SDS011;44460;40.162;18.294;2023-04-09T04:44:42;20.52;;;4.95;;
58681;SDS011;44460;40.162;18.294;2023-04-09T04:47:23;10.30;;;3.17;;
58681;SDS011;44460;40.162;18.294;2023-04-09T04:49:49;10.95;;;3.00;;
58681;SDS011;44460;40.162;18.294;2023-04-09T04:52:15;16.95;;;3.22;;
58681;SDS011;44460;40.162;18.294;2023-04-09T04:54:45;19.40;;;3.78;;
58681;SDS011;44460;40.162;18.294;2023-04-09T04:57:19;16.70;;;3.70;;
58681;SDS011;44460;40.162;18.294;2023-04-09T04:59:44;12.13;;;3.42;;
58681;SDS011;44460;40.162;18.294;2023-04-09T05:02:12;14.38;;;3.25;;
58681;SDS011;44460;40.162;18.294;2023-04-09T05:04:48;14.48;;;4.15;;
58681;SDS011;44460;40.162;18.294;2023-04-09T05:07:17;14.63;;;3.17;;
58681;SDS011;44460;40.162;18.294;2023-04-09T05:09:49;15.20;;;3.45;;
58681;SDS011;44460;40.162;18.294;2023-04-09T05:12:15;10.50;;;3.50;;
58681;SDS011;44460;40.162;18.294;2023-04-09T05:14:45;9.27;;;3.20;;
58681;SDS011;44460;40.162;18.294;2023-04-09T05:17:10;9.07;;;2.63;;
58681;SDS011;44460;40.162;18.294;2023-04-09T05:19:41;12.15;;;3.55;;
58681;SDS011;44460;40.162;18.294;2023-04-09T05:22:08;8.85;;;2.90;;
58681;SDS011;44460;40.162;18.294;2023-04-09T05:24:33;6.78;;;2.28;;
58681;SDS011;44460;40.162;18.294;2023-04-09T05:26:59;10.43;;;3.08;;
58681;SDS011;44460;40.162;18.294;2023-04-09T05:29:26;15.07;;;3.15;;
58681;SDS011;44460;40.162;18.294;2023-04-09T05:31:52;15.45;;;3.53;;
58681;SDS011;44460;40.162;18.294;2023-04-09T05:34:31;9.57;;;3.35;;
58681;SDS011;44460;40.162;18.294;2023-04-09T05:36:56;13.15;;;3.08;;
58681;SDS011;44460;40.162;18.294;2023-04-09T05:39:23;10.43;;;3.27;;
58681;SDS011;44460;40.162;18.294;2023-04-09T05:41:50;9.57;;;2.67;;
58681;SDS011;44460;40.162;18.294;2023-04-09T05:44:22;11.23;;;2.90;;
58681;SDS011;44460;40.162;18.294;2023-04-09T05:46:50;12.85;;;3.30;;
58681;SDS011;44460;40.162;18.294;2023-04-09T05:49:20;7.35;;;2.80;;
58681;SDS011;44460;40.162;18.294;2023-04-09T05:51:49;11.07;;;2.80;;
58681;SDS011;44460;40.162;18.294;2023-04-09T05:54:21;11.57;;;2.90;;
58681;SDS011;44460;40.162;18.294;2023-04-09T05:56:46;16.20;;;3.22;;
58681;SDS011;44460;40.162;18.294;2023-04-09T05:59:13;9.10;;;2.45;;
58681;SDS011;44460;40.162;18.294;2023-04-09T06:01:38;8.18;;;2.42;;
58681;SDS011;44460;40.162;18.294;2023-04-09T06:04:04;10.00;;;2.50;;
58681;SDS011;44460;40.162;18.294;2023-04-09T06:06:29;7.00;;;2.88;;
58681;SDS011;44460;40.162;18.294;2023-04-09T06:08:55;11.43;;;2.58;;
58681;SDS011;44460;40.162;18.294;2023-04-09T06:11:20;10.00;;;3.08;;
58681;SDS011;44460;40.162;18.294;2023-04-09T06:13:47;6.90;;;2.33;;
58681;SDS011;44460;40.162;18.294;2023-04-09T06:16:12;13.48;;;2.83;;
58681;SDS011;44460;40.162;18.294;2023-04-09T06:18:37;10.57;;;3.53;;
58681;SDS011;44460;40.162;18.294;2023-04-09T06:21:03;10.80;;;2.63;;
58681;SDS011;44460;40.162;18.294;2023-04-09T06:23:29;10.48;;;2.55;;
58681;SDS011;44460;40.162;18.294;2023-04-09T06:25:55;8.32;;;2.85;;
58681;SDS011;44460;40.162;18.294;2023-04-09T06:28:20;10.50;;;3.47;;
58681;SDS011;44460;40.162;18.294;2023-04-09T06:30:45;13.23;;;2.92;;
58681;SDS011;44460;40.162;18.294;2023-04-09T06:33:11;8.10;;;3.03;;
58681;SDS011;44460;40.162;18.294;2023-04-09T06:35:37;9.70;;;3.17;;
58681;SDS011;44460;40.162;18.294;2023-04-09T06:38:02;10.95;;;3.40;;
58681;SDS011;44460;40.162;18.294;2023-04-09T06:40:27;14.18;;;3.67;;
58681;SDS011;44460;40.162;18.294;2023-04-09T06:42:53;9.23;;;3.08;;
58681;SDS011;44460;40.162;18.294;2023-04-09T06:45:25;9.23;;;3.20;;
58681;SDS011;44460;40.162;18.294;2023-04-09T06:47:50;7.32;;;2.53;;
58681;SDS011;44460;40.162;18.294;2023-04-09T06:50:16;8.75;;;3.05;;
58681;SDS011;44460;40.162;18.294;2023-04-09T06:52:42;15.65;;;3.55;;
58681;SDS011;44460;40.162;18.294;2023-04-09T06:55:07;10.77;;;2.85;;
58681;SDS011;44460;40.162;18.294;2023-04-09T06:57:32;11.02;;;3.22;;
58681;SDS011;44460;40.162;18.294;2023-04-09T06:59:58;13.70;;;2.70;;
58681;SDS011;44460;40.162;18.294;2023-04-09T07:02:23;9.25;;;2.78;;
58681;SDS011;44460;40.162;18.294;2023-04-09T07:04:49;8.15;;;2.90;;
58681;SDS011;44460;40.162;18.294;2023-04-09T07:07:14;8.32;;;2.85;;
58681;SDS011;44460;40.162;18.294;2023-04-09T07:09:41;14.73;;;3.15;;
58681;SDS011;44460;40.162;18.294;2023-04-09T07:12:06;13.50;;;3.42;;
58681;SDS011;44460;40.162;18.294;2023-04-09T07:14:32;8.98;;;3.10;;
58681;SDS011;44460;40.162;18.294;2023-04-09T07:16:57;17.35;;;3.60;;
58681;SDS011;44460;40.162;18.294;2023-04-09T07:19:23;11.02;;;4.05;;
58681;SDS011;44460;40.162;18.294;2023-04-09T07:21:48;12.20;;;3.00;;
58681;SDS011;44460;40.162;18.294;2023-04-09T07:24:13;10.45;;;3.30;;
58681;SDS011;44460;40.162;18.294;2023-04-09T07:26:39;12.43;;;3.35;;
58681;SDS011;44460;40.162;18.294;2023-04-09T07:29:05;9.70;;;3.30;;
58681;SDS011;44460;40.162;18.294;2023-04-09T07:31:30;7.82;;;2.85;;
58681;SDS011;44460;40.162;18.294;2023-04-09T07:33:56;8.95;;;2.92;;
58681;SDS011;44460;40.162;18.294;2023-04-09T07:36:22;12.02;;;3.03;;
58681;SDS011;44460;40.162;18.294;2023-04-09T07:38:47;10.32;;;3.10;;
58681;SDS011;44460;40.162;18.294;2023-04-09T07:41:12;9.68;;;2.63;;
58681;SDS011;44460;40.162;18.294;2023-04-09T07:43:38;11.55;;;3.65;;
58681;SDS011;44460;40.162;18.294;2023-04-09T07:46:03;11.98;;;3.63;;
58681;SDS011;44460;40.162;18.294;2023-04-09T07:48:29;13.23;;;3.38;;
58681;SDS011;44460;40.162;18.294;2023-04-09T07:50:54;9.77;;;3.20;;
58681;SDS011;44460;40.162;18.294;2023-04-09T07:53:20;9.65;;;3.08;;
58681;SDS011;44460;40.162;18.294;2023-04-09T07:55:45;8.63;;;3.08;;
58681;SDS011;44460;40.162;18.294;2023-04-09T07:58:10;15.15;;;3.05;;
58681;SDS011;44460;40.162;18.294;2023-04-09T08:00:36;9.43;;;3.17;;
58681;SDS011;44460;40.162;18.294;2023-04-09T08:03:01;11.88;;;3.80;;
58681;SDS011;44460;40.162;18.294;2023-04-09T08:05:28;8.60;;;2.78;;
58681;SDS011;44460;40.162;18.294;2023-04-09T08:07:53;10.23;;;3.50;;
58681;SDS011;44460;40.162;18.294;2023-04-09T08:10:18;13.00;;;3.60;;
58681;SDS011;44460;40.162;18.294;2023-04-09T08:12:46;15.68;;;4.53;;
58681;SDS011;44460;40.162;18.294;2023-04-09T08:15:11;20.27;;;7.22;;
58681;SDS011;44460;40.162;18.294;2023-04-09T08:17:37;10.00;;;5.13;;
58681;SDS011;44460;40.162;18.294;2023-04-09T08:20:03;10.23;;;4.00;;
58681;SDS011;44460;40.162;18.294;2023-04-09T08:22:28;10.20;;;3.40;;
58681;SDS011;44460;40.162;18.294;2023-04-09T08:24:55;11.77;;;3.03;;
58681;SDS011;44460;40.162;18.294;2023-04-09T08:27:21;15.50;;;3.03;;
58681;SDS011;44460;40.162;18.294;2023-04-09T08:29:46;9.65;;;3.33;;
58681;SDS011;44460;40.162;18.294;2023-04-09T08:32:12;13.20;;;4.43;;
58681;SDS011;44460;40.162;18.294;2023-04-09T08:34:37;9.40;;;3.08;;
58681;SDS011;44460;40.162;18.294;2023-04-09T08:37:03;10.82;;;4.15;;
58681;SDS011;44460;40.162;18.294;2023-04-09T08:39:28;8.48;;;3.58;;
58681;SDS011;44460;40.162;18.294;2023-04-09T08:41:53;13.13;;;4.72;;
58681;SDS011;44460;40.162;18.294;2023-04-09T08:44:24;11.50;;;3.55;;
58681;SDS011;44460;40.162;18.294;2023-04-09T08:46:50;10.63;;;3.22;;
58681;SDS011;44460;40.162;18.294;2023-04-09T08:49:15;12.05;;;5.18;;
58681;SDS011;44460;40.162;18.294;2023-04-09T08:51:44;10.48;;;4.68;;
58681;SDS011;44460;40.162;18.294;2023-04-09T08:54:13;13.35;;;5.30;;
58681;SDS011;44460;40.162;18.294;2023-04-09T08:56:38;10.30;;;3.47;;
58681;SDS011;44460;40.162;18.294;2023-04-09T08:59:04;8.90;;;2.95;;
58681;SDS011;44460;40.162;18.294;2023-04-09T09:01:30;10.73;;;3.70;;
58681;SDS011;44460;40.162;18.294;2023-04-09T09:04:03;7.40;;;3.78;;
58681;SDS011;44460;40.162;18.294;2023-04-09T09:06:30;8.65;;;3.15;;
58681;SDS011;44460;40.162;18.294;2023-04-09T09:11:25;8.00;;;3.30;;
58681;SDS011;44460;40.162;18.294;2023-04-09T09:14:01;6.60;;;2.47;;
58681;SDS011;44460;40.162;18.294;2023-04-09T09:16:26;6.95;;;2.60;;
58681;SDS011;44460;40.162;18.294;2023-04-09T09:18:52;6.32;;;1.92;;
58681;SDS011;44460;40.162;18.294;2023-04-09T09:21:17;8.00;;;3.10;;
58681;SDS011;44460;40.162;18.294;2023-04-09T09:23:43;6.60;;;2.10;;
58681;SDS011;44460;40.162;18.294;2023-04-09T09:26:10;8.85;;;2.63;;
58681;SDS011;44460;40.162;18.294;2023-04-09T09:28:35;5.43;;;2.30;;
58681;SDS011;44460;40.162;18.294;2023-04-09T09:31:06;5.82;;;2.63;;
58681;SDS011;44460;40.162;18.294;2023-04-09T09:33:32;9.45;;;2.95;;
58681;SDS011;44460;40.162;18.294;2023-04-09T09:35:57;8.05;;;2.20;;
58681;SDS011;44460;40.162;18.294;2023-04-09T09:38:23;5.05;;;2.50;;
58681;SDS011;44460;40.162;18.294;2023-04-09T09:40:48;7.80;;;2.72;;
58681;SDS011;44460;40.162;18.294;2023-04-09T09:43:14;8.15;;;4.82;;
58681;SDS011;44460;40.162;18.294;2023-04-09T09:45:40;4.72;;;2.00;;
58681;SDS011;44460;40.162;18.294;2023-04-09T09:48:06;5.18;;;2.20;;
58681;SDS011;44460;40.162;18.294;2023-04-09T09:50:31;7.50;;;2.20;;
58681;SDS011;44460;40.162;18.294;2023-04-09T09:53:05;5.50;;;1.97;;
58681;SDS011;44460;40.162;18.294;2023-04-09T09:55:31;5.40;;;2.20;;
58681;SDS011;44460;40.162;18.294;2023-04-09T09:58:00;7.45;;;2.90;;
58681;SDS011;44460;40.162;18.294;2023-04-09T10:00:26;4.40;;;1.77;;
58681;SDS011;44460;40.162;18.294;2023-04-09T10:02:55;4.30;;;2.10;;
58681;SDS011;44460;40.162;18.294;2023-04-09T10:05:22;6.05;;;2.50;;
58681;SDS011;44460;40.162;18.294;2023-04-09T10:07:51;5.70;;;1.92;;
58681;SDS011;44460;40.162;18.294;2023-04-09T10:10:17;5.05;;;2.45;;
58681;SDS011;44460;40.162;18.294;2023-04-09T10:12:43;4.07;;;1.80;;
58681;SDS011;44460;40.162;18.294;2023-04-09T10:15:09;5.28;;;2.20;;
58681;SDS011;44460;40.162;18.294;2023-04-09T10:17:35;8.85;;;2.67;;
58681;SDS011;44460;40.162;18.294;2023-04-09T10:20:09;9.07;;;3.92;;
58681;SDS011;44460;40.162;18.294;2023-04-09T10:22:35;10.25;;;5.05;;
58681;SDS011;44460;40.162;18.294;2023-04-09T10:25:02;9.25;;;4.72;;
58681;SDS011;44460;40.162;18.294;2023-04-09T10:27:28;9.85;;;3.95;;
58681;SDS011;44460;40.162;18.294;2023-04-09T10:29:54;7.80;;;3.22;;
58681;SDS011;44460;40.162;18.294;2023-04-09T10:32:20;5.78;;;2.63;;
58681;SDS011;44460;40.162;18.294;2023-04-09T10:34:45;9.57;;;2.90;;
58681;SDS011;44460;40.162;18.294;2023-04-09T10:37:15;5.82;;;2.25;;
58681;SDS011;44460;40.162;18.294;2023-04-09T10:39:44;7.72;;;3.83;;
58681;SDS011;44460;40.162;18.294;2023-04-09T10:42:16;9.25;;;4.28;;
58681;SDS011;44460;40.162;18.294;2023-04-09T10:44:42;6.25;;;2.50;;
58681;SDS011;44460;40.162;18.294;2023-04-09T10:47:08;7.95;;;3.33;;
58681;SDS011;44460;40.162;18.294;2023-04-09T10:49:34;8.45;;;3.15;;
58681;SDS011;44460;40.162;18.294;2023-04-09T10:52:01;8.98;;;3.90;;
58681;SDS011;44460;40.162;18.294;2023-04-09T10:59:40;7.30;;;3.70;;
58681;SDS011;44460;40.162;18.294;2023-04-09T11:02:06;9.02;;;4.68;;
58681;SDS011;44460;40.162;18.294;2023-04-09T11:04:40;6.40;;;3.08;;
58681;SDS011;44460;40.162;18.294;2023-04-09T11:07:10;4.93;;;2.22;;
58681;SDS011;44460;40.162;18.294;2023-04-09T11:09:36;5.68;;;2.70;;
58681;SDS011;44460;40.162;18.294;2023-04-09T11:12:02;4.63;;;1.83;;
58681;SDS011;44460;40.162;18.294;2023-04-09T11:14:27;4.38;;;2.50;;
58681;SDS011;44460;40.162;18.294;2023-04-09T11:16:53;7.07;;;4.05;;
58681;SDS011;44460;40.162;18.294;2023-04-09T11:19:21;6.25;;;2.72;;
58681;SDS011;44460;40.162;18.294;2023-04-09T11:21:47;5.47;;;2.30;;
58681;SDS011;44460;40.162;18.294;2023-04-09T11:24:13;7.10;;;3.13;;
58681;SDS011;44460;40.162;18.294;2023-04-09T11:26:38;4.60;;;2.20;;
58681;SDS011;44460;40.162;18.294;2023-04-09T11:29:04;5.97;;;2.55;;
58681;SDS011;44460;40.162;18.294;2023-04-09T11:31:31;9.52;;;3.60;;
58681;SDS011;44460;40.162;18.294;2023-04-09T11:33:56;8.38;;;4.05;;
58681;SDS011;44460;40.162;18.294;2023-04-09T11:36:22;5.65;;;2.30;;
58681;SDS011;44460;40.162;18.294;2023-04-09T11:38:48;5.95;;;2.63;;
58681;SDS011;44460;40.162;18.294;2023-04-09T11:41:14;9.30;;;4.60;;
58681;SDS011;44460;40.162;18.294;2023-04-09T11:43:40;6.95;;;2.67;;
58681;SDS011;44460;40.162;18.294;2023-04-09T11:46:06;8.73;;;3.30;;
58681;SDS011;44460;40.162;18.294;2023-04-09T11:48:32;6.47;;;3.13;;
58681;SDS011;44460;40.162;18.294;2023-04-09T11:50:57;8.63;;;3.85;;
58681;SDS011;44460;40.162;18.294;2023-04-09T11:53:23;9.52;;;4.18;;
58681;SDS011;44460;40.162;18.294;2023-04-09T11:55:54;7.53;;;3.75;;
58681;SDS011;44460;40.162;18.294;2023-04-09T11:58:24;7.55;;;3.28;;
58681;SDS011;44460;40.162;18.294;2023-04-09T12:01:07;6.53;;;3.35;;
58681;SDS011;44460;40.162;18.294;2023-04-09T12:03:33;6.75;;;2.47;;
58681;SDS011;44460;40.162;18.294;2023-04-09T12:05:59;5.22;;;2.72;;
58681;SDS011;44460;40.162;18.294;2023-04-09T12:08:25;8.32;;;3.40;;
58681;SDS011;44460;40.162;18.294;2023-04-09T12:10:51;6.10;;;3.08;;
58681;SDS011;44460;40.162;18.294;2023-04-09T12:13:17;6.75;;;3.20;;
58681;SDS011;44460;40.162;18.294;2023-04-09T12:15:42;4.15;;;2.00;;
58681;SDS011;44460;40.162;18.294;2023-04-09T12:18:08;5.72;;;2.40;;
58681;SDS011;44460;40.162;18.294;2023-04-09T12:20:38;4.38;;;1.80;;
58681;SDS011;44460;40.162;18.294;2023-04-09T12:23:04;5.30;;;2.28;;
58681;SDS011;44460;40.162;18.294;2023-04-09T12:25:30;6.30;;;1.92;;
58681;SDS011;44460;40.162;18.294;2023-04-09T12:27:55;3.53;;;1.83;;
58681;SDS011;44460;40.162;18.294;2023-04-09T12:30:21;6.50;;;2.95;;
58681;SDS011;44460;40.162;18.294;2023-04-09T12:32:47;5.72;;;2.25;;
58681;SDS011;44460;40.162;18.294;2023-04-09T12:35:13;5.97;;;2.17;;
58681;SDS011;44460;40.162;18.294;2023-04-09T12:37:39;5.28;;;2.20;;
58681;SDS011;44460;40.162;18.294;2023-04-09T12:40:04;5.07;;;1.98;;
58681;SDS011;44460;40.162;18.294;2023-04-09T12:42:30;7.00;;;2.78;;
58681;SDS011;44460;40.162;18.294;2023-04-09T12:44:55;5.43;;;2.40;;
58681;SDS011;44460;40.162;18.294;2023-04-09T12:47:21;5.82;;;2.67;;
58681;SDS011;44460;40.162;18.294;2023-04-09T12:49:47;4.93;;;2.70;;
58681;SDS011;44460;40.162;18.294;2023-04-09T12:52:14;5.43;;;2.42;;
58681;SDS011;44460;40.162;18.294;2023-04-09T12:54:39;6.07;;;2.70;;
58681;SDS011;44460;40.162;18.294;2023-04-09T12:57:05;4.55;;;1.98;;
58681;SDS011;44460;40.162;18.294;2023-04-09T12:59:30;5.00;;;2.28;;
58681;SDS011;44460;40.162;18.294;2023-04-09T13:01:56;9.88;;;2.80;;
58681;SDS011;44460;40.162;18.294;2023-04-09T13:04:21;6.38;;;2.78;;
58681;SDS011;44460;40.162;18.294;2023-04-09T13:06:47;7.30;;;3.05;;
58681;SDS011;44460;40.162;18.294;2023-04-09T13:09:12;8.00;;;2.78;;
58681;SDS011;44460;40.162;18.294;2023-04-09T13:11:38;4.90;;;2.25;;
58681;SDS011;44460;40.162;18.294;2023-04-09T13:14:06;5.97;;;2.53;;
58681;SDS011;44460;40.162;18.294;2023-04-09T13:16:38;8.45;;;2.22;;
58681;SDS011;44460;40.162;18.294;2023-04-09T13:19:05;4.95;;;2.38;;
58681;SDS011;44460;40.162;18.294;2023-04-09T13:21:31;4.85;;;2.28;;
58681;SDS011;44460;40.162;18.294;2023-04-09T13:23:56;7.40;;;3.38;;
58681;SDS011;44460;40.162;18.294;2023-04-09T13:26:22;6.13;;;2.70;;
58681;SDS011;44460;40.162;18.294;2023-04-09T13:28:47;5.53;;;2.40;;
58681;SDS011;44460;40.162;18.294;2023-04-09T13:31:16;8.85;;;4.00;;
58681;SDS011;44460;40.162;18.294;2023-04-09T13:33:41;8.45;;;4.47;;
58681;SDS011;44460;40.162;18.294;2023-04-09T13:36:07;4.97;;;2.35;;
58681;SDS011;44460;40.162;18.294;2023-04-09T13:38:32;8.05;;;2.55;;
58681;SDS011;44460;40.162;18.294;2023-04-09T13:40:58;6.53;;;2.05;;
58681;SDS011;44460;40.162;18.294;2023-04-09T13:43:23;7.78;;;3.08;;
58681;SDS011;44460;40.162;18.294;2023-04-09T13:45:52;9.52;;;4.57;;
58681;SDS011;44460;40.162;18.294;2023-04-09T13:48:18;6.63;;;2.80;;
58681;SDS011;44460;40.162;18.294;2023-04-09T13:50:44;7.30;;;2.10;;
58681;SDS011;44460;40.162;18.294;2023-04-09T13:53:10;8.20;;;2.60;;
58681;SDS011;44460;40.162;18.294;2023-04-09T13:55:35;4.63;;;2.33;;
58681;SDS011;44460;40.162;18.294;2023-04-09T13:58:01;7.72;;;3.22;;
58681;SDS011;44460;40.162;18.294;2023-04-09T14:00:26;5.40;;;2.40;;
58681;SDS011;44460;40.162;18.294;2023-04-09T14:02:52;7.75;;;2.83;;
58681;SDS011;44460;40.162;18.294;2023-04-09T14:05:17;5.75;;;2.47;;
58681;SDS011;44460;40.162;18.294;2023-04-09T14:07:43;5.90;;;2.78;;
58681;SDS011;44460;40.162;18.294;2023-04-09T14:10:08;4.47;;;2.42;;
58681;SDS011;44460;40.162;18.294;2023-04-09T14:12:34;6.85;;;2.50;;
58681;SDS011;44460;40.162;18.294;2023-04-09T14:14:59;5.63;;;2.70;;
58681;SDS011;44460;40.162;18.294;2023-04-09T14:17:25;5.03;;;2.53;;
58681;SDS011;44460;40.162;18.294;2023-04-09T14:19:50;4.43;;;2.05;;
58681;SDS011;44460;40.162;18.294;2023-04-09T14:22:16;4.68;;;2.10;;
58681;SDS011;44460;40.162;18.294;2023-04-09T14:24:41;18.10;;;10.98;;
58681;SDS011;44460;40.162;18.294;2023-04-09T14:27:07;5.38;;;1.70;;
58681;SDS011;44460;40.162;18.294;2023-04-09T14:29:33;6.05;;;2.15;;
58681;SDS011;44460;40.162;18.294;2023-04-09T14:31:58;4.82;;;2.20;;
58681;SDS011;44460;40.162;18.294;2023-04-09T14:34:25;5.25;;;1.90;;
58681;SDS011;44460;40.162;18.294;2023-04-09T14:36:50;3.83;;;1.65;;
58681;SDS011;44460;40.162;18.294;2023-04-09T14:39:16;4.35;;;2.13;;
58681;SDS011;44460;40.162;18.294;2023-04-09T14:41:42;4.53;;;1.85;;
58681;SDS011;44460;40.162;18.294;2023-04-09T14:44:07;4.68;;;2.08;;
58681;SDS011;44460;40.162;18.294;2023-04-09T14:46:33;4.05;;;2.10;;